sensor_id;sensor_type;location;lat;lon;timestamp;temperature;humidity
21199;DHT22;10757;51.038;3.712;2022-07-11T00:01:08;19.10;99.90
21199;DHT22;10757;51.038;3.712;2022-07-11T00:03:34;19.10;99.90
21199;DHT22;10757;51.038;3.712;2022-07-11T00:06:00;19.10;99.90
21199;DHT22;10757;51.038;3.712;2022-07-11T00:08:26;19.00;99.90
21199;DHT22;10757;51.038;3.712;2022-07-11T00:10:54;19.00;99.90
21199;DHT22;10757;51.038;3.712;2022-07-11T00:13:20;19.00;99.90
21199;DHT22;10757;51.038;3.712;2022-07-11T00:15:45;19.00;99.90
21199;DHT22;10757;51.038;3.712;2022-07-11T00:18:11;18.90;99.90
21199;DHT22;10757;51.038;3.712;2022-07-11T00:20:37;18.80;99.90
21199;DHT22;10757;51.038;3.712;2022-07-11T00:23:03;18.80;99.90
21199;DHT22;10757;51.038;3.712;2022-07-11T00:25:28;18.90;99.90
21199;DHT22;10757;51.038;3.712;2022-07-11T00:27:54;18.90;99.90
21199;DHT22;10757;51.038;3.712;2022-07-11T00:30:20;18.80;99.90
21199;DHT22;10757;51.038;3.712;2022-07-11T00:32:46;18.70;99.90
21199;DHT22;10757;51.038;3.712;2022-07-11T00:35:13;18.70;99.90
21199;DHT22;10757;51.038;3.712;2022-07-11T00:37:39;18.80;99.90
21199;DHT22;10757;51.038;3.712;2022-07-11T00:40:05;18.70;99.90
21199;DHT22;10757;51.038;3.712;2022-07-11T00:42:31;18.60;99.90
21199;DHT22;10757;51.038;3.712;2022-07-11T00:44:57;18.60;99.90
21199;DHT22;10757;51.038;3.712;2022-07-11T00:47:22;18.60;99.90
21199;DHT22;10757;51.038;3.712;2022-07-11T00:49:48;18.60;99.90
21199;DHT22;10757;51.038;3.712;2022-07-11T00:52:14;18.60;99.90
21199;DHT22;10757;51.038;3.712;2022-07-11T00:54:40;18.60;99.90
21199;DHT22;10757;51.038;3.712;2022-07-11T00:57:09;18.50;99.90
21199;DHT22;10757;51.038;3.712;2022-07-11T00:59:35;18.60;99.90
21199;DHT22;10757;51.038;3.712;2022-07-11T01:02:01;18.70;99.90
21199;DHT22;10757;51.038;3.712;2022-07-11T01:04:30;18.90;99.90
21199;DHT22;10757;51.038;3.712;2022-07-11T01:06:55;18.90;99.90
21199;DHT22;10757;51.038;3.712;2022-07-11T01:09:24;19.00;99.90
21199;DHT22;10757;51.038;3.712;2022-07-11T01:11:50;19.00;99.90
21199;DHT22;10757;51.038;3.712;2022-07-11T01:14:16;18.80;99.90
21199;DHT22;10757;51.038;3.712;2022-07-11T01:16:47;18.60;99.90
21199;DHT22;10757;51.038;3.712;2022-07-11T01:19:13;18.60;99.90
21199;DHT22;10757;51.038;3.712;2022-07-11T01:21:39;18.60;99.90
21199;DHT22;10757;51.038;3.712;2022-07-11T01:24:08;18.60;99.90
21199;DHT22;10757;51.038;3.712;2022-07-11T01:26:34;18.60;99.90
21199;DHT22;10757;51.038;3.712;2022-07-11T01:29:12;18.70;99.90
21199;DHT22;10757;51.038;3.712;2022-07-11T01:31:42;18.70;99.90
21199;DHT22;10757;51.038;3.712;2022-07-11T01:34:09;18.70;99.90
21199;DHT22;10757;51.038;3.712;2022-07-11T01:36:36;18.60;99.90
21199;DHT22;10757;51.038;3.712;2022-07-11T01:39:02;18.60;99.90
21199;DHT22;10757;51.038;3.712;2022-07-11T01:41:28;18.60;99.90
21199;DHT22;10757;51.038;3.712;2022-07-11T01:43:54;18.50;99.90
21199;DHT22;10757;51.038;3.712;2022-07-11T01:46:20;18.40;99.90
21199;DHT22;10757;51.038;3.712;2022-07-11T01:48:47;18.50;99.90
21199;DHT22;10757;51.038;3.712;2022-07-11T01:51:13;18.50;99.90
21199;DHT22;10757;51.038;3.712;2022-07-11T01:53:38;18.40;99.90
21199;DHT22;10757;51.038;3.712;2022-07-11T01:56:05;18.30;99.90
21199;DHT22;10757;51.038;3.712;2022-07-11T01:58:33;18.20;99.90
21199;DHT22;10757;51.038;3.712;2022-07-11T02:00:59;18.20;99.90
21199;DHT22;10757;51.038;3.712;2022-07-11T02:03:25;18.10;99.90
21199;DHT22;10757;51.038;3.712;2022-07-11T02:05:51;18.10;99.90
21199;DHT22;10757;51.038;3.712;2022-07-11T02:08:18;18.10;99.90
21199;DHT22;10757;51.038;3.712;2022-07-11T02:10:45;18.10;99.90
21199;DHT22;10757;51.038;3.712;2022-07-11T02:13:14;18.10;99.90
21199;DHT22;10757;51.038;3.712;2022-07-11T02:15:40;18.20;99.90
21199;DHT22;10757;51.038;3.712;2022-07-11T02:18:10;18.30;99.90
21199;DHT22;10757;51.038;3.712;2022-07-11T02:20:39;18.20;99.90
21199;DHT22;10757;51.038;3.712;2022-07-11T02:23:08;18.10;99.90
21199;DHT22;10757;51.038;3.712;2022-07-11T02:25:35;18.20;99.90
21199;DHT22;10757;51.038;3.712;2022-07-11T02:28:05;18.20;99.90
21199;DHT22;10757;51.038;3.712;2022-07-11T02:30:31;18.20;99.90
21199;DHT22;10757;51.038;3.712;2022-07-11T02:32:57;18.30;99.90
21199;DHT22;10757;51.038;3.712;2022-07-11T02:35:23;18.20;99.90
21199;DHT22;10757;51.038;3.712;2022-07-11T02:37:49;18.20;99.90
21199;DHT22;10757;51.038;3.712;2022-07-11T02:40:15;18.20;99.90
21199;DHT22;10757;51.038;3.712;2022-07-11T02:42:41;18.00;99.90
21199;DHT22;10757;51.038;3.712;2022-07-11T02:45:07;18.10;99.90
21199;DHT22;10757;51.038;3.712;2022-07-11T02:47:35;18.00;99.90
21199;DHT22;10757;51.038;3.712;2022-07-11T02:50:01;18.00;99.90
21199;DHT22;10757;51.038;3.712;2022-07-11T02:52:26;18.00;99.90
21199;DHT22;10757;51.038;3.712;2022-07-11T02:54:52;17.90;99.90
21199;DHT22;10757;51.038;3.712;2022-07-11T02:57:18;17.80;99.90
21199;DHT22;10757;51.038;3.712;2022-07-11T02:59:44;17.80;99.90
21199;DHT22;10757;51.038;3.712;2022-07-11T03:02:10;17.90;99.90
21199;DHT22;10757;51.038;3.712;2022-07-11T03:04:38;17.80;99.90
21199;DHT22;10757;51.038;3.712;2022-07-11T03:07:04;17.70;99.90
21199;DHT22;10757;51.038;3.712;2022-07-11T03:09:30;17.60;99.90
21199;DHT22;10757;51.038;3.712;2022-07-11T03:11:56;17.90;99.90
21199;DHT22;10757;51.038;3.712;2022-07-11T03:14:22;17.90;99.90
21199;DHT22;10757;51.038;3.712;2022-07-11T03:16:48;18.00;99.90
21199;DHT22;10757;51.038;3.712;2022-07-11T03:19:14;18.00;99.90
21199;DHT22;10757;51.038;3.712;2022-07-11T03:21:40;17.90;99.90
21199;DHT22;10757;51.038;3.712;2022-07-11T03:24:05;17.90;99.90
21199;DHT22;10757;51.038;3.712;2022-07-11T03:26:31;18.00;99.90
21199;DHT22;10757;51.038;3.712;2022-07-11T03:28:57;17.90;99.90
21199;DHT22;10757;51.038;3.712;2022-07-11T03:31:24;17.80;99.90
21199;DHT22;10757;51.038;3.712;2022-07-11T03:33:50;17.80;99.90
21199;DHT22;10757;51.038;3.712;2022-07-11T03:36:16;17.90;99.90
21199;DHT22;10757;51.038;3.712;2022-07-11T03:38:42;18.00;99.90
21199;DHT22;10757;51.038;3.712;2022-07-11T03:41:08;17.80;99.90
21199;DHT22;10757;51.038;3.712;2022-07-11T03:43:33;17.60;99.90
21199;DHT22;10757;51.038;3.712;2022-07-11T03:45:59;17.60;99.90
21199;DHT22;10757;51.038;3.712;2022-07-11T03:48:24;17.50;99.90
21199;DHT22;10757;51.038;3.712;2022-07-11T03:50:50;17.60;99.90
21199;DHT22;10757;51.038;3.712;2022-07-11T03:53:16;17.60;99.90
21199;DHT22;10757;51.038;3.712;2022-07-11T03:55:42;17.70;99.90
21199;DHT22;10757;51.038;3.712;2022-07-11T03:58:08;17.60;99.90
21199;DHT22;10757;51.038;3.712;2022-07-11T04:00:33;17.70;99.90
21199;DHT22;10757;51.038;3.712;2022-07-11T04:03:02;17.60;99.90
21199;DHT22;10757;51.038;3.712;2022-07-11T04:05:29;17.60;99.90
21199;DHT22;10757;51.038;3.712;2022-07-11T04:07:54;17.70;99.90
21199;DHT22;10757;51.038;3.712;2022-07-11T04:10:20;17.80;99.90
21199;DHT22;10757;51.038;3.712;2022-07-11T04:12:46;17.80;99.90
21199;DHT22;10757;51.038;3.712;2022-07-11T04:15:12;17.80;99.90
21199;DHT22;10757;51.038;3.712;2022-07-11T04:17:37;17.80;99.90
21199;DHT22;10757;51.038;3.712;2022-07-11T04:20:04;17.80;99.90
21199;DHT22;10757;51.038;3.712;2022-07-11T04:22:30;17.80;99.90
21199;DHT22;10757;51.038;3.712;2022-07-11T04:24:56;17.80;99.90
21199;DHT22;10757;51.038;3.712;2022-07-11T04:27:22;17.70;99.90
21199;DHT22;10757;51.038;3.712;2022-07-11T04:29:49;17.80;99.90
21199;DHT22;10757;51.038;3.712;2022-07-11T04:32:15;17.80;99.90
21199;DHT22;10757;51.038;3.712;2022-07-11T04:34:41;17.80;99.90
21199;DHT22;10757;51.038;3.712;2022-07-11T04:37:06;17.80;99.90
21199;DHT22;10757;51.038;3.712;2022-07-11T04:39:32;17.80;99.90
21199;DHT22;10757;51.038;3.712;2022-07-11T04:41:59;17.80;99.90
21199;DHT22;10757;51.038;3.712;2022-07-11T04:44:29;17.90;99.90
21199;DHT22;10757;51.038;3.712;2022-07-11T04:46:55;17.90;99.90
21199;DHT22;10757;51.038;3.712;2022-07-11T04:49:21;17.90;99.90
21199;DHT22;10757;51.038;3.712;2022-07-11T04:51:46;18.10;99.90
21199;DHT22;10757;51.038;3.712;2022-07-11T04:54:13;18.20;99.90
21199;DHT22;10757;51.038;3.712;2022-07-11T04:56:39;18.20;99.90
21199;DHT22;10757;51.038;3.712;2022-07-11T04:59:05;18.30;99.90
21199;DHT22;10757;51.038;3.712;2022-07-11T05:01:34;18.40;99.90
21199;DHT22;10757;51.038;3.712;2022-07-11T05:04:00;18.80;99.90
21199;DHT22;10757;51.038;3.712;2022-07-11T05:06:26;19.30;99.90
21199;DHT22;10757;51.038;3.712;2022-07-11T05:08:52;19.80;99.90
21199;DHT22;10757;51.038;3.712;2022-07-11T05:11:19;20.10;99.90
21199;DHT22;10757;51.038;3.712;2022-07-11T05:13:45;20.30;99.90
21199;DHT22;10757;51.038;3.712;2022-07-11T05:16:13;20.60;99.90
21199;DHT22;10757;51.038;3.712;2022-07-11T05:18:38;20.90;99.90
21199;DHT22;10757;51.038;3.712;2022-07-11T05:21:05;21.10;99.90
21199;DHT22;10757;51.038;3.712;2022-07-11T05:23:31;21.30;99.90
21199;DHT22;10757;51.038;3.712;2022-07-11T05:26:00;21.80;99.90
21199;DHT22;10757;51.038;3.712;2022-07-11T05:28:25;21.70;99.90
21199;DHT22;10757;51.038;3.712;2022-07-11T05:30:51;21.50;99.90
21199;DHT22;10757;51.038;3.712;2022-07-11T05:33:16;21.50;99.90
21199;DHT22;10757;51.038;3.712;2022-07-11T05:35:42;21.50;99.90
21199;DHT22;10757;51.038;3.712;2022-07-11T05:38:08;21.60;99.90
21199;DHT22;10757;51.038;3.712;2022-07-11T05:40:33;21.90;99.90
21199;DHT22;10757;51.038;3.712;2022-07-11T05:42:59;22.20;99.90
21199;DHT22;10757;51.038;3.712;2022-07-11T05:45:26;22.50;99.90
21199;DHT22;10757;51.038;3.712;2022-07-11T05:47:53;22.60;99.90
21199;DHT22;10757;51.038;3.712;2022-07-11T05:50:19;22.40;99.90
21199;DHT22;10757;51.038;3.712;2022-07-11T05:52:44;21.90;99.90
21199;DHT22;10757;51.038;3.712;2022-07-11T05:55:10;21.70;99.90
21199;DHT22;10757;51.038;3.712;2022-07-11T05:57:36;21.50;99.90
21199;DHT22;10757;51.038;3.712;2022-07-11T06:00:05;21.60;99.90
21199;DHT22;10757;51.038;3.712;2022-07-11T06:02:31;21.70;99.90
21199;DHT22;10757;51.038;3.712;2022-07-11T06:04:57;22.00;99.90
21199;DHT22;10757;51.038;3.712;2022-07-11T06:07:23;21.90;99.90
21199;DHT22;10757;51.038;3.712;2022-07-11T06:10:08;21.90;99.90
21199;DHT22;10757;51.038;3.712;2022-07-11T06:12:33;21.90;99.90
21199;DHT22;10757;51.038;3.712;2022-07-11T06:14:59;22.10;99.90
21199;DHT22;10757;51.038;3.712;2022-07-11T06:17:25;22.40;99.90
21199;DHT22;10757;51.038;3.712;2022-07-11T06:19:51;22.40;99.90
21199;DHT22;10757;51.038;3.712;2022-07-11T06:22:17;22.00;99.90
21199;DHT22;10757;51.038;3.712;2022-07-11T06:24:43;21.80;99.90
21199;DHT22;10757;51.038;3.712;2022-07-11T06:27:08;21.60;99.90
21199;DHT22;10757;51.038;3.712;2022-07-11T06:29:34;21.30;99.90
21199;DHT22;10757;51.038;3.712;2022-07-11T06:32:01;21.10;99.90
21199;DHT22;10757;51.038;3.712;2022-07-11T06:34:26;20.90;99.90
21199;DHT22;10757;51.038;3.712;2022-07-11T06:36:52;20.70;99.90
21199;DHT22;10757;51.038;3.712;2022-07-11T06:39:18;20.60;99.90
21199;DHT22;10757;51.038;3.712;2022-07-11T06:41:44;20.40;99.90
21199;DHT22;10757;51.038;3.712;2022-07-11T06:44:10;20.40;99.90
21199;DHT22;10757;51.038;3.712;2022-07-11T06:46:36;20.30;99.90
21199;DHT22;10757;51.038;3.712;2022-07-11T06:49:01;20.30;99.90
21199;DHT22;10757;51.038;3.712;2022-07-11T06:51:27;20.30;99.90
21199;DHT22;10757;51.038;3.712;2022-07-11T06:53:53;20.50;99.90
21199;DHT22;10757;51.038;3.712;2022-07-11T06:56:19;20.70;99.90
21199;DHT22;10757;51.038;3.712;2022-07-11T06:58:44;20.70;99.90
21199;DHT22;10757;51.038;3.712;2022-07-11T07:01:10;20.80;99.90
21199;DHT22;10757;51.038;3.712;2022-07-11T07:03:35;20.90;99.90
21199;DHT22;10757;51.038;3.712;2022-07-11T07:06:02;20.90;99.90
21199;DHT22;10757;51.038;3.712;2022-07-11T07:08:29;20.90;99.90
21199;DHT22;10757;51.038;3.712;2022-07-11T07:10:57;20.80;99.90
21199;DHT22;10757;51.038;3.712;2022-07-11T07:13:23;20.80;99.90
21199;DHT22;10757;51.038;3.712;2022-07-11T07:15:56;20.90;99.90
21199;DHT22;10757;51.038;3.712;2022-07-11T07:18:25;20.90;99.90
21199;DHT22;10757;51.038;3.712;2022-07-11T07:20:55;21.10;99.90
21199;DHT22;10757;51.038;3.712;2022-07-11T07:23:24;21.10;99.90
21199;DHT22;10757;51.038;3.712;2022-07-11T07:25:50;21.10;99.90
21199;DHT22;10757;51.038;3.712;2022-07-11T07:28:17;21.20;99.90
21199;DHT22;10757;51.038;3.712;2022-07-11T07:30:47;21.20;99.90
21199;DHT22;10757;51.038;3.712;2022-07-11T07:33:14;21.20;99.90
21199;DHT22;10757;51.038;3.712;2022-07-11T07:35:50;21.20;99.90
21199;DHT22;10757;51.038;3.712;2022-07-11T07:38:16;21.20;99.90
21199;DHT22;10757;51.038;3.712;2022-07-11T07:40:42;21.30;99.90
21199;DHT22;10757;51.038;3.712;2022-07-11T07:43:10;21.50;99.90
21199;DHT22;10757;51.038;3.712;2022-07-11T07:45:36;21.60;99.90
21199;DHT22;10757;51.038;3.712;2022-07-11T07:48:01;21.70;99.90
21199;DHT22;10757;51.038;3.712;2022-07-11T07:50:30;21.80;99.90
21199;DHT22;10757;51.038;3.712;2022-07-11T07:52:56;21.90;99.90
21199;DHT22;10757;51.038;3.712;2022-07-11T07:55:22;21.90;99.90
21199;DHT22;10757;51.038;3.712;2022-07-11T07:57:48;22.10;99.90
21199;DHT22;10757;51.038;3.712;2022-07-11T08:00:16;22.10;99.90
21199;DHT22;10757;51.038;3.712;2022-07-11T08:03:07;22.00;99.90
21199;DHT22;10757;51.038;3.712;2022-07-11T08:05:34;22.30;99.90
21199;DHT22;10757;51.038;3.712;2022-07-11T08:08:03;22.40;99.90
21199;DHT22;10757;51.038;3.712;2022-07-11T08:10:29;22.50;99.90
21199;DHT22;10757;51.038;3.712;2022-07-11T08:12:56;22.50;99.90
21199;DHT22;10757;51.038;3.712;2022-07-11T08:15:22;22.40;99.90
21199;DHT22;10757;51.038;3.712;2022-07-11T08:17:49;22.60;99.90
21199;DHT22;10757;51.038;3.712;2022-07-11T08:20:19;22.80;99.90
21199;DHT22;10757;51.038;3.712;2022-07-11T08:22:45;22.80;99.90
21199;DHT22;10757;51.038;3.712;2022-07-11T08:25:13;22.90;99.90
21199;DHT22;10757;51.038;3.712;2022-07-11T08:27:39;23.00;99.90
21199;DHT22;10757;51.038;3.712;2022-07-11T08:30:09;23.00;99.90
21199;DHT22;10757;51.038;3.712;2022-07-11T08:32:40;23.20;99.90
21199;DHT22;10757;51.038;3.712;2022-07-11T08:35:08;23.20;99.90
21199;DHT22;10757;51.038;3.712;2022-07-11T08:37:35;23.10;99.90
21199;DHT22;10757;51.038;3.712;2022-07-11T08:40:03;23.30;99.90
21199;DHT22;10757;51.038;3.712;2022-07-11T08:42:30;23.50;99.90
21199;DHT22;10757;51.038;3.712;2022-07-11T08:44:58;23.70;99.90
21199;DHT22;10757;51.038;3.712;2022-07-11T08:47:24;23.80;99.90
21199;DHT22;10757;51.038;3.712;2022-07-11T08:49:54;23.70;99.90
21199;DHT22;10757;51.038;3.712;2022-07-11T08:52:22;23.80;99.90
21199;DHT22;10757;51.038;3.712;2022-07-11T08:54:48;23.70;99.90
21199;DHT22;10757;51.038;3.712;2022-07-11T08:57:15;23.60;99.90
21199;DHT22;10757;51.038;3.712;2022-07-11T08:59:41;23.50;99.90
21199;DHT22;10757;51.038;3.712;2022-07-11T09:02:10;23.70;99.90
21199;DHT22;10757;51.038;3.712;2022-07-11T09:04:38;23.90;99.90
21199;DHT22;10757;51.038;3.712;2022-07-11T09:07:06;24.00;99.90
21199;DHT22;10757;51.038;3.712;2022-07-11T09:09:37;24.10;99.90
21199;DHT22;10757;51.038;3.712;2022-07-11T09:12:10;24.30;99.90
21199;DHT22;10757;51.038;3.712;2022-07-11T09:14:39;24.50;99.90
21199;DHT22;10757;51.038;3.712;2022-07-11T09:17:06;24.40;99.90
21199;DHT22;10757;51.038;3.712;2022-07-11T09:19:38;24.50;99.90
21199;DHT22;10757;51.038;3.712;2022-07-11T09:22:14;24.30;99.90
21199;DHT22;10757;51.038;3.712;2022-07-11T09:25:08;24.40;99.90
21199;DHT22;10757;51.038;3.712;2022-07-11T09:27:58;24.60;99.90
21199;DHT22;10757;51.038;3.712;2022-07-11T09:30:29;24.50;99.90
21199;DHT22;10757;51.038;3.712;2022-07-11T09:33:02;24.30;99.90
21199;DHT22;10757;51.038;3.712;2022-07-11T09:35:39;24.20;99.90
21199;DHT22;10757;51.038;3.712;2022-07-11T09:38:13;24.50;99.90
21199;DHT22;10757;51.038;3.712;2022-07-11T09:40:45;24.50;99.90
21199;DHT22;10757;51.038;3.712;2022-07-11T09:43:14;24.70;99.90
21199;DHT22;10757;51.038;3.712;2022-07-11T09:45:48;24.80;99.90
21199;DHT22;10757;51.038;3.712;2022-07-11T09:48:15;25.00;99.90
21199;DHT22;10757;51.038;3.712;2022-07-11T09:50:54;25.00;99.90
21199;DHT22;10757;51.038;3.712;2022-07-11T09:53:26;25.10;99.90
21199;DHT22;10757;51.038;3.712;2022-07-11T09:55:51;24.90;99.90
21199;DHT22;10757;51.038;3.712;2022-07-11T09:58:19;24.80;99.90
21199;DHT22;10757;51.038;3.712;2022-07-11T10:00:56;24.70;99.90
21199;DHT22;10757;51.038;3.712;2022-07-11T10:03:25;24.70;99.90
21199;DHT22;10757;51.038;3.712;2022-07-11T10:05:53;25.00;99.90
21199;DHT22;10757;51.038;3.712;2022-07-11T10:08:25;25.30;99.90
21199;DHT22;10757;51.038;3.712;2022-07-11T10:10:57;25.30;99.90
21199;DHT22;10757;51.038;3.712;2022-07-11T10:13:23;25.60;99.90
21199;DHT22;10757;51.038;3.712;2022-07-11T10:15:53;25.90;99.90
21199;DHT22;10757;51.038;3.712;2022-07-11T10:18:40;25.90;99.90
21199;DHT22;10757;51.038;3.712;2022-07-11T10:21:34;25.80;99.90
21199;DHT22;10757;51.038;3.712;2022-07-11T10:28:08;25.70;99.90
21199;DHT22;10757;51.038;3.712;2022-07-11T10:30:09;25.80;99.90
21199;DHT22;10757;51.038;3.712;2022-07-11T10:32:58;26.10;99.90
21199;DHT22;10757;51.038;3.712;2022-07-11T10:35:29;26.20;99.90
21199;DHT22;10757;51.038;3.712;2022-07-11T10:37:56;26.20;99.90
21199;DHT22;10757;51.038;3.712;2022-07-11T10:43:15;26.10;99.90
21199;DHT22;10757;51.038;3.712;2022-07-11T10:45:55;26.20;99.90
21199;DHT22;10757;51.038;3.712;2022-07-11T10:48:24;26.30;99.90
21199;DHT22;10757;51.038;3.712;2022-07-11T10:51:14;26.00;99.90
21199;DHT22;10757;51.038;3.712;2022-07-11T10:53:49;25.90;99.90
21199;DHT22;10757;51.038;3.712;2022-07-11T10:59:16;26.00;99.90
21199;DHT22;10757;51.038;3.712;2022-07-11T11:02:02;26.10;99.90
21199;DHT22;10757;51.038;3.712;2022-07-11T11:07:43;26.30;99.90
21199;DHT22;10757;51.038;3.712;2022-07-11T11:15:44;26.70;99.90
21199;DHT22;10757;51.038;3.712;2022-07-11T11:18:30;26.70;99.90
21199;DHT22;10757;51.038;3.712;2022-07-11T11:26:13;26.80;99.90
21199;DHT22;10757;51.038;3.712;2022-07-11T11:29:00;27.00;99.90
21199;DHT22;10757;51.038;3.712;2022-07-11T11:31:31;27.10;99.90
21199;DHT22;10757;51.038;3.712;2022-07-11T11:33:59;26.90;99.90
21199;DHT22;10757;51.038;3.712;2022-07-11T11:36:33;26.90;99.90
21199;DHT22;10757;51.038;3.712;2022-07-11T11:39:00;27.10;99.90
21199;DHT22;10757;51.038;3.712;2022-07-11T11:41:30;27.10;99.90
21199;DHT22;10757;51.038;3.712;2022-07-11T11:43:59;27.10;99.90
21199;DHT22;10757;51.038;3.712;2022-07-11T11:46:29;27.30;99.90
21199;DHT22;10757;51.038;3.712;2022-07-11T11:49:03;27.40;99.90
21199;DHT22;10757;51.038;3.712;2022-07-11T11:51:33;27.50;99.90
21199;DHT22;10757;51.038;3.712;2022-07-11T11:54:02;27.60;99.90
21199;DHT22;10757;51.038;3.712;2022-07-11T11:56:32;27.70;99.90
21199;DHT22;10757;51.038;3.712;2022-07-11T11:59:12;27.60;99.90
21199;DHT22;10757;51.038;3.712;2022-07-11T12:01:47;27.40;99.90
21199;DHT22;10757;51.038;3.712;2022-07-11T12:04:16;27.20;99.90
21199;DHT22;10757;51.038;3.712;2022-07-11T12:06:49;27.30;99.90
21199;DHT22;10757;51.038;3.712;2022-07-11T12:09:21;27.30;99.90
21199;DHT22;10757;51.038;3.712;2022-07-11T12:12:06;27.30;99.90
21199;DHT22;10757;51.038;3.712;2022-07-11T12:15:31;27.70;99.90
21199;DHT22;10757;51.038;3.712;2022-07-11T12:18:03;27.50;99.90
21199;DHT22;10757;51.038;3.712;2022-07-11T12:20:40;27.30;99.90
21199;DHT22;10757;51.038;3.712;2022-07-11T12:23:12;27.50;99.90
21199;DHT22;10757;51.038;3.712;2022-07-11T12:25:39;27.70;99.90
21199;DHT22;10757;51.038;3.712;2022-07-11T12:28:08;27.60;99.90
21199;DHT22;10757;51.038;3.712;2022-07-11T12:30:36;27.60;99.90
21199;DHT22;10757;51.038;3.712;2022-07-11T12:33:12;27.40;99.90
21199;DHT22;10757;51.038;3.712;2022-07-11T12:36:00;27.40;99.90
21199;DHT22;10757;51.038;3.712;2022-07-11T12:38:50;27.50;99.90
21199;DHT22;10757;51.038;3.712;2022-07-11T12:41:21;27.70;99.90
21199;DHT22;10757;51.038;3.712;2022-07-11T12:43:50;27.70;99.90
21199;DHT22;10757;51.038;3.712;2022-07-11T12:46:38;27.80;99.90
21199;DHT22;10757;51.038;3.712;2022-07-11T12:49:06;27.70;99.90
21199;DHT22;10757;51.038;3.712;2022-07-11T12:51:44;27.70;99.70
21199;DHT22;10757;51.038;3.712;2022-07-11T12:54:14;27.80;98.80
21199;DHT22;10757;51.038;3.712;2022-07-11T12:57:02;28.00;99.10
21199;DHT22;10757;51.038;3.712;2022-07-11T12:59:30;28.00;98.40
21199;DHT22;10757;51.038;3.712;2022-07-11T13:02:11;28.30;99.50
21199;DHT22;10757;51.038;3.712;2022-07-11T13:04:49;28.40;99.80
21199;DHT22;10757;51.038;3.712;2022-07-11T13:07:34;28.40;99.90
21199;DHT22;10757;51.038;3.712;2022-07-11T13:10:24;28.00;99.90
21199;DHT22;10757;51.038;3.712;2022-07-11T13:12:53;28.00;99.90
21199;DHT22;10757;51.038;3.712;2022-07-11T13:15:25;28.00;99.90
21199;DHT22;10757;51.038;3.712;2022-07-11T13:17:53;28.10;99.90
21199;DHT22;10757;51.038;3.712;2022-07-11T13:20:26;28.00;99.90
21199;DHT22;10757;51.038;3.712;2022-07-11T13:22:55;28.00;99.90
21199;DHT22;10757;51.038;3.712;2022-07-11T13:25:22;28.20;99.90
21199;DHT22;10757;51.038;3.712;2022-07-11T13:27:55;28.10;99.90
21199;DHT22;10757;51.038;3.712;2022-07-11T13:30:26;28.00;99.70
21199;DHT22;10757;51.038;3.712;2022-07-11T13:32:56;28.00;99.90
21199;DHT22;10757;51.038;3.712;2022-07-11T13:35:23;28.10;99.90
21199;DHT22;10757;51.038;3.712;2022-07-11T13:37:49;28.10;99.90
21199;DHT22;10757;51.038;3.712;2022-07-11T13:40:19;28.30;99.90
21199;DHT22;10757;51.038;3.712;2022-07-11T13:42:48;28.40;99.90
21199;DHT22;10757;51.038;3.712;2022-07-11T13:45:22;28.30;99.90
21199;DHT22;10757;51.038;3.712;2022-07-11T13:47:50;27.90;99.90
21199;DHT22;10757;51.038;3.712;2022-07-11T13:50:17;28.10;99.90
21199;DHT22;10757;51.038;3.712;2022-07-11T13:52:44;28.00;99.90
21199;DHT22;10757;51.038;3.712;2022-07-11T13:55:16;28.10;99.90
21199;DHT22;10757;51.038;3.712;2022-07-11T13:57:42;28.40;99.90
21199;DHT22;10757;51.038;3.712;2022-07-11T14:00:10;28.30;99.90
21199;DHT22;10757;51.038;3.712;2022-07-11T14:02:36;28.50;99.90
21199;DHT22;10757;51.038;3.712;2022-07-11T14:05:02;28.50;99.70
21199;DHT22;10757;51.038;3.712;2022-07-11T14:07:29;28.60;99.60
21199;DHT22;10757;51.038;3.712;2022-07-11T14:09:57;28.50;99.80
21199;DHT22;10757;51.038;3.712;2022-07-11T14:12:23;28.70;99.40
21199;DHT22;10757;51.038;3.712;2022-07-11T14:14:50;29.00;98.80
21199;DHT22;10757;51.038;3.712;2022-07-11T14:17:22;29.00;98.60
21199;DHT22;10757;51.038;3.712;2022-07-11T14:19:52;29.10;98.50
21199;DHT22;10757;51.038;3.712;2022-07-11T14:22:19;29.30;98.00
21199;DHT22;10757;51.038;3.712;2022-07-11T14:24:45;29.00;98.20
21199;DHT22;10757;51.038;3.712;2022-07-11T14:27:16;28.70;98.30
21199;DHT22;10757;51.038;3.712;2022-07-11T14:29:58;28.50;98.80
21199;DHT22;10757;51.038;3.712;2022-07-11T14:32:25;28.60;98.80
21199;DHT22;10757;51.038;3.712;2022-07-11T14:34:54;28.30;99.10
21199;DHT22;10757;51.038;3.712;2022-07-11T14:37:20;28.40;98.80
21199;DHT22;10757;51.038;3.712;2022-07-11T14:39:47;28.40;98.90
21199;DHT22;10757;51.038;3.712;2022-07-11T14:42:14;28.50;98.80
21199;DHT22;10757;51.038;3.712;2022-07-11T14:44:40;28.50;98.20
21199;DHT22;10757;51.038;3.712;2022-07-11T14:47:07;28.40;98.50
21199;DHT22;10757;51.038;3.712;2022-07-11T14:49:37;28.50;98.50
21199;DHT22;10757;51.038;3.712;2022-07-11T14:52:12;28.30;98.80
21199;DHT22;10757;51.038;3.712;2022-07-11T14:54:39;28.50;98.90
21199;DHT22;10757;51.038;3.712;2022-07-11T14:57:04;28.80;98.60
21199;DHT22;10757;51.038;3.712;2022-07-11T14:59:31;28.80;98.50
21199;DHT22;10757;51.038;3.712;2022-07-11T15:01:57;28.80;98.40
21199;DHT22;10757;51.038;3.712;2022-07-11T15:04:26;28.90;98.20
21199;DHT22;10757;51.038;3.712;2022-07-11T15:06:55;29.10;97.80
21199;DHT22;10757;51.038;3.712;2022-07-11T15:09:39;29.10;97.90
21199;DHT22;10757;51.038;3.712;2022-07-11T15:12:24;28.80;98.20
21199;DHT22;10757;51.038;3.712;2022-07-11T15:14:50;28.70;98.10
21199;DHT22;10757;51.038;3.712;2022-07-11T15:17:18;28.70;97.90
21199;DHT22;10757;51.038;3.712;2022-07-11T15:19:47;28.60;98.00
21199;DHT22;10757;51.038;3.712;2022-07-11T15:22:15;28.60;98.00
21199;DHT22;10757;51.038;3.712;2022-07-11T15:24:41;28.80;97.50
21199;DHT22;10757;51.038;3.712;2022-07-11T15:27:07;28.90;97.50
21199;DHT22;10757;51.038;3.712;2022-07-11T15:29:33;29.00;97.30
21199;DHT22;10757;51.038;3.712;2022-07-11T15:32:00;29.00;97.20
21199;DHT22;10757;51.038;3.712;2022-07-11T15:34:33;29.00;97.10
21199;DHT22;10757;51.038;3.712;2022-07-11T15:36:59;28.90;97.20
21199;DHT22;10757;51.038;3.712;2022-07-11T15:39:26;28.70;97.00
21199;DHT22;10757;51.038;3.712;2022-07-11T15:41:53;28.50;97.80
21199;DHT22;10757;51.038;3.712;2022-07-11T15:44:19;28.60;97.10
21199;DHT22;10757;51.038;3.712;2022-07-11T15:46:45;28.70;96.50
21199;DHT22;10757;51.038;3.712;2022-07-11T15:49:11;28.80;96.60
21199;DHT22;10757;51.038;3.712;2022-07-11T15:51:40;28.80;96.30
21199;DHT22;10757;51.038;3.712;2022-07-11T15:54:09;28.30;96.30
21199;DHT22;10757;51.038;3.712;2022-07-11T15:56:37;28.10;96.90
21199;DHT22;10757;51.038;3.712;2022-07-11T15:59:03;28.20;96.30
21199;DHT22;10757;51.038;3.712;2022-07-11T16:01:30;28.20;96.30
21199;DHT22;10757;51.038;3.712;2022-07-11T16:04:01;28.30;96.30